Grand Forks International Airport
KGFK : now visible

Airfield :











YOU CAN JOIN US ON...

 
LOGIN :

Register | Disclaimer

   EN    FR    IT 

 









Legend :    VFR   Marginal VFR   IFR   Intensive IFR   Very Intensive IFR
Visi :
Ceiling :
>= 8 km
>= 3000ft
5 to 8 km
1000 to 3000 ft
1500m to 5 km
500 to 1000 ft
800 to 1500m
200 to 500 ft
< 800m
< 200 ft
Symbols :   Thunderstorms  Fog  Heavy snow  Heavy precipitations  Wind > 20 kt






- Airport Elevation : 845 ft
- IATA code : GFK


KGFK - Grand Forks International

CURRENT METAR :
  • 282153Z 26011KT 10SM BKN085 BKN140 M01/M07 A2954 RMK AO2 SLP014 T10061072

EXPIRED METARs :
  • 282053Z 26014KT 10SM SCT028 OVC050 M01/M07 A2953 RMK AO2 PK WND 26026/2034 SLP011 T10061067 53008
  • 282008Z 26014G18KT 10SM BKN028 BKN039 OVC100 01/M03 A2951 RMK AO2 T00111033
  • 281953Z 21010KT 10SM BKN039 OVC100 01/M02 A2950 RMK AO2 SLP000 T00111022

TAF KGFK
Valid from the 28 at 18:00 until the 29 at 18:00 UTC


281720Z 2818/2918 20018KT P6SM BKN040 OVC140
FM281900 24011KT P6SM BKN050
FM290000 24010KT P6SM SCT100
FM291000 23012KT P6SM FEW090
KZMP FIR / North America



MET'MAP, your aeronautical weather chart ! - Copyright ORBIFLY December 2007 - Disclaimer

ORBIFLY MET'MAP TEAM :

Programming & Development : Alexandra Zaïnal
Original concept : Baudouin d'Aumeries
Technical & hardware support : Manuel Goepfert
Assistance : Marc-Olivier Méhu




SOURCES & CREDITS :

   NOAA       Earth
Advisory